createdAt,value
2023-06-28T00:02:11.902Z,100822.78
2023-06-28T00:04:38.827Z,100823.78
2023-06-28T00:07:12.281Z,100833.13
2023-06-28T00:09:45.297Z,100829.72
2023-06-28T00:12:11.973Z,100831.06
2023-06-28T00:14:41.710Z,100831.25
2023-06-28T00:17:13.169Z,100827.19
2023-06-28T00:19:49.016Z,100829.91
2023-06-28T00:22:18.665Z,100822.97
2023-06-28T00:24:49.855Z,100827.16
2023-06-28T00:27:16.545Z,100836.13
2023-06-28T00:29:43.212Z,100829.72
2023-06-28T00:32:10.339Z,100832.59
2023-06-28T00:34:40.876Z,100830.22
2023-06-28T00:40:12.608Z,100822.41
2023-06-28T00:42:43.623Z,100825.81
2023-06-28T00:45:27.374Z,100825.31
2023-06-28T00:51:02.831Z,100818.69
2023-06-28T00:53:32.729Z,100828.34
2023-06-28T00:56:08.120Z,100833.91
2023-06-28T00:58:35.670Z,100817.81
2023-06-28T01:01:02.835Z,100836.28
2023-06-28T01:03:29.714Z,100829.50
2023-06-28T01:06:00.417Z,100833.03
2023-06-28T01:08:29.040Z,100831.34
2023-06-28T01:10:56.754Z,100833.03
2023-06-28T01:13:29.578Z,100834.91
2023-06-28T01:15:56.595Z,100834.75
2023-06-28T01:18:26.822Z,100839.13
2023-06-28T01:21:02.795Z,100834.56
2023-06-28T01:23:33.082Z,100839.81
2023-06-28T01:26:14.663Z,100839.81
2023-06-28T01:28:48.782Z,100832.03
2023-06-28T01:31:21.564Z,100827.13
2023-06-28T01:33:51.638Z,100825.06
2023-06-28T01:36:31.236Z,100831.34
2023-06-28T01:38:59.730Z,100838.78
2023-06-28T01:41:33.242Z,100829.66
2023-06-28T01:44:09.296Z,100837.09
2023-06-28T01:46:36.538Z,100832.34
2023-06-28T01:49:03.716Z,100836.59
2023-06-28T01:51:49.593Z,100842.31
2023-06-28T01:54:17.495Z,100844.53
2023-06-28T01:56:46.183Z,100833.16
2023-06-28T01:59:18.162Z,100839.25
2023-06-28T02:01:48.148Z,100845.84
2023-06-28T02:04:14.995Z,100847.53
2023-06-28T02:06:42.180Z,100830.94
2023-06-28T02:09:12.124Z,100838.91
2023-06-28T02:11:38.824Z,100839.75
2023-06-28T02:14:11.573Z,100844.47
2023-06-28T02:16:42.763Z,100832.66
2023-06-28T02:19:16.826Z,100841.63
2023-06-28T02:21:52.235Z,100836.88
2023-06-28T02:24:18.961Z,100840.44
2023-06-28T02:26:45.749Z,100836.72
2023-06-28T02:29:12.586Z,100833.00
2023-06-28T02:31:39.526Z,100836.91
2023-06-28T02:34:16.785Z,100834.56
2023-06-28T02:36:43.451Z,100830.97
2023-06-28T02:39:15.814Z,100833.69
2023-06-28T02:41:42.597Z,100833.38
2023-06-28T02:44:12.560Z,100824.22
2023-06-28T02:46:41.883Z,100832.88
2023-06-28T02:49:11.710Z,100825.09
2023-06-28T02:51:38.636Z,100823.75
2023-06-28T02:54:11.629Z,100827.16
2023-06-28T02:56:38.357Z,100829.50
2023-06-28T02:59:10.737Z,100825.31
2023-06-28T03:01:47.996Z,100826.63
2023-06-28T03:04:14.763Z,100839.88
2023-06-28T03:06:42.833Z,100825.97
2023-06-28T03:09:15.587Z,100834.28
2023-06-28T03:11:42.312Z,100837.34
2023-06-28T03:14:16.435Z,100838.69
2023-06-28T03:16:43.218Z,100842.09
2023-06-28T03:19:17.731Z,100842.41
2023-06-28T03:21:57.964Z,100836.00
2023-06-28T03:24:33.997Z,100835.50
2023-06-28T03:27:01.277Z,100828.88
2023-06-28T03:29:31.156Z,100833.47
2023-06-28T03:31:57.938Z,100836.50
2023-06-28T03:34:30.389Z,100830.91
2023-06-28T03:37:04.498Z,100833.00
2023-06-28T03:39:32.264Z,100831.59
2023-06-28T03:41:58.970Z,100834.47
2023-06-28T03:44:25.951Z,100835.34
2023-06-28T03:46:58.243Z,100840.94
2023-06-28T03:49:29.902Z,100833.13
2023-06-28T03:51:56.671Z,100834.97
2023-06-28T03:54:23.456Z,100835.97
2023-06-28T03:56:50.789Z,100839.19
2023-06-28T03:59:17.594Z,100840.19
2023-06-28T04:01:48.574Z,100833.75
2023-06-28T04:04:24.289Z,100833.03
2023-06-28T04:06:51.307Z,100833.38
2023-06-28T04:09:18.185Z,100828.09
2023-06-28T04:11:45.253Z,100825.19
2023-06-28T04:14:12.147Z,100830.97
2023-06-28T04:16:41.879Z,100823.66
2023-06-28T04:19:10.994Z,100833.63
2023-06-28T04:22:02.559Z,100833.44
2023-06-28T04:24:32.813Z,100843.75
2023-06-28T04:27:01.924Z,100843.22
2023-06-28T04:29:29.197Z,100837.28
2023-06-28T04:32:10.962Z,100838.56
2023-06-28T04:34:39.890Z,100843.16
2023-06-28T04:39:52.224Z,100846.75
2023-06-28T04:42:19.084Z,100843.50
2023-06-28T04:44:56.133Z,100852.28
2023-06-28T04:47:24.490Z,100832.22
2023-06-28T04:49:51.272Z,100855.84
2023-06-28T04:52:22.271Z,100843.81
2023-06-28T04:54:54.962Z,100846.56
2023-06-28T04:57:24.739Z,100850.00
2023-06-28T04:59:51.487Z,100852.22
2023-06-28T05:02:26.074Z,100859.03
2023-06-28T05:05:00.257Z,100861.00
2023-06-28T05:07:38.687Z,100868.25
2023-06-28T05:10:09.527Z,100858.31
2023-06-28T05:12:36.844Z,100872.00
2023-06-28T05:15:06.700Z,100857.00
2023-06-28T05:17:33.817Z,100862.19
2023-06-28T05:20:08.170Z,100855.22
2023-06-28T05:23:13.898Z,100866.41
2023-06-28T05:25:42.890Z,100860.53
2023-06-28T05:28:13.258Z,100864.97
2023-06-28T05:30:44.712Z,100876.94
2023-06-28T05:33:12.468Z,100870.13
2023-06-28T05:35:47.291Z,100871.56
2023-06-28T05:38:14.008Z,100867.97
2023-06-28T05:40:41.289Z,100870.63
2023-06-28T05:43:08.310Z,100865.91
2023-06-28T05:45:37.474Z,100871.53
2023-06-28T05:48:07.225Z,100875.28
2023-06-28T05:50:39.375Z,100880.06
2023-06-28T05:53:07.472Z,100876.06
2023-06-28T05:55:39.371Z,100883.34
2023-06-28T05:58:09.195Z,100879.09
2023-06-28T06:00:38.783Z,100882.00
2023-06-28T06:03:08.830Z,100891.94
2023-06-28T06:05:35.583Z,100887.91
2023-06-28T06:08:02.294Z,100897.78
2023-06-28T06:10:36.325Z,100894.81
2023-06-28T06:13:03.154Z,100899.53
2023-06-28T06:15:29.783Z,100900.22
2023-06-28T06:17:56.659Z,100905.75
2023-06-28T06:20:23.860Z,100900.16
2023-06-28T06:23:02.608Z,100907.94
2023-06-28T06:25:29.432Z,100902.72
2023-06-28T06:28:06.505Z,100895.06
2023-06-28T06:30:36.618Z,100898.16
2023-06-28T06:33:08.130Z,100914.25
2023-06-28T06:35:35.184Z,100901.00
2023-06-28T06:38:01.863Z,100910.47
2023-06-28T06:40:49.881Z,100921.38
2023-06-28T06:43:24.045Z,100909.44
2023-06-28T06:45:57.919Z,100904.91
2023-06-28T06:48:25.054Z,100908.81
2023-06-28T06:50:51.852Z,100920.09
2023-06-28T06:56:02.073Z,100926.53
2023-06-28T06:58:29.409Z,100927.41
2023-06-28T07:01:01.024Z,100934.75
2023-06-28T07:03:27.713Z,100937.75
2023-06-28T07:06:00.778Z,100938.59
2023-06-28T07:08:28.119Z,100937.56
2023-06-28T07:11:01.064Z,100943.53
2023-06-28T07:13:27.856Z,100945.25
2023-06-28T07:16:00.776Z,100944.66
2023-06-28T07:18:27.804Z,100941.78
2023-06-28T07:21:01.137Z,100932.91
2023-06-28T07:23:27.874Z,100955.03
2023-06-28T07:25:59.818Z,100949.38
2023-06-28T07:28:26.503Z,100943.94
2023-06-28T07:31:13.093Z,100951.56
2023-06-28T07:33:42.234Z,100957.22
2023-06-28T07:36:09.095Z,100950.84
2023-06-28T07:38:36.710Z,100954.56
2023-06-28T07:41:05.248Z,100953.38
2023-06-28T07:43:35.627Z,100960.31
2023-06-28T07:46:10.271Z,100956.72
2023-06-28T07:48:37.197Z,100953.72
2023-06-28T07:51:09.499Z,100944.13
2023-06-28T07:53:36.125Z,100951.44
2023-06-28T07:56:09.403Z,100960.72
2023-06-28T07:58:42.304Z,100962.03
2023-06-28T08:01:18.503Z,100953.31
2023-06-28T08:03:45.809Z,100952.19
2023-06-28T08:06:12.653Z,100947.97
2023-06-28T08:08:42.182Z,100949.53
2023-06-28T08:11:16.377Z,100954.94
2023-06-28T08:13:43.126Z,100958.50
2023-06-28T08:16:12.205Z,100943.19
2023-06-28T08:18:41.940Z,100944.63
2023-06-28T08:21:08.680Z,100951.50
2023-06-28T08:23:38.342Z,100950.84
2023-06-28T08:26:08.061Z,100948.81
2023-06-28T08:28:43.526Z,100941.94
2023-06-28T08:31:20.964Z,100950.69
2023-06-28T08:33:59.107Z,100946.75
2023-06-28T08:36:30.338Z,100952.34
2023-06-28T08:38:56.981Z,100940.81
2023-06-28T08:41:30.103Z,100948.31
2023-06-28T08:44:01.241Z,100950.91
2023-06-28T08:46:32.550Z,100945.50
2023-06-28T08:49:10.788Z,100950.63
2023-06-28T08:52:00.068Z,100938.59
2023-06-28T08:54:31.265Z,100938.88
2023-06-28T08:57:12.411Z,100950.50
2023-06-28T08:59:40.553Z,100942.50
2023-06-28T09:02:10.669Z,100936.44
2023-06-28T09:04:40.473Z,100927.19
2023-06-28T09:07:10.998Z,100931.84
2023-06-28T09:09:42.575Z,100939.81
2023-06-28T09:12:11.270Z,100933.97
2023-06-28T09:14:37.970Z,100936.31
2023-06-28T09:17:10.525Z,100942.50
2023-06-28T09:19:40.690Z,100929.75
2023-06-28T09:22:21.378Z,100936.97
2023-06-28T09:25:13.068Z,100926.06
2023-06-28T09:27:43.296Z,100940.50
2023-06-28T09:30:21.920Z,100931.31
2023-06-28T09:32:55.381Z,100930.09
2023-06-28T09:35:23.331Z,100936.25
2023-06-28T09:38:10.401Z,100944.38
2023-06-28T09:40:37.537Z,100938.78
2023-06-28T09:43:17.300Z,100941.97
2023-06-28T09:45:45.247Z,100948.38
2023-06-28T09:48:12.151Z,100952.47
2023-06-28T09:50:49.662Z,100949.25
2023-06-28T09:53:20.560Z,100955.41
2023-06-28T09:55:51.884Z,100959.50
2023-06-28T09:58:22.087Z,100957.91
2023-06-28T10:00:55.433Z,100959.97
2023-06-28T10:03:29.474Z,100959.78
2023-06-28T10:06:01.232Z,100952.28
2023-06-28T10:08:36.393Z,100955.06
2023-06-28T10:11:19.602Z,100959.00
2023-06-28T10:13:50.839Z,100955.88
2023-06-28T10:16:34.054Z,100955.66
2023-06-28T10:19:01.603Z,100953.97
2023-06-28T10:21:33.044Z,100947.22
2023-06-28T10:24:07.711Z,100946.44
2023-06-28T10:26:36.290Z,100938.25
2023-06-28T10:29:08.579Z,100930.84
2023-06-28T10:31:36.043Z,100929.84
2023-06-28T10:34:06.931Z,100940.97
2023-06-28T10:36:34.316Z,100935.31
2023-06-28T10:39:01.133Z,100928.72
2023-06-28T10:41:35.699Z,100934.06
2023-06-28T10:44:09.482Z,100937.25
2023-06-28T10:46:38.198Z,100932.34
2023-06-28T10:49:14.409Z,100930.84
2023-06-28T10:51:50.462Z,100933.06
2023-06-28T10:54:17.178Z,100926.41
2023-06-28T10:56:58.480Z,100936.97
2023-06-28T10:59:27.784Z,100938.59
2023-06-28T11:01:59.102Z,100932.69
2023-06-28T11:04:27.354Z,100922.56
2023-06-28T11:07:25.391Z,100937.88
2023-06-28T11:10:45.247Z,100938.31
2023-06-28T11:14:18.857Z,100939.00
2023-06-28T11:16:51.270Z,100939.16
2023-06-28T11:19:43.328Z,100933.13
2023-06-28T11:22:14.344Z,100924.47
2023-06-28T11:25:12.452Z,100930.94
2023-06-28T11:27:42.150Z,100934.00
2023-06-28T11:30:10.411Z,100924.16
2023-06-28T11:32:38.268Z,100919.16
2023-06-28T11:35:13.857Z,100917.44
2023-06-28T11:37:42.472Z,100935.84
2023-06-28T11:40:12.143Z,100928.78
2023-06-28T11:42:46.664Z,100929.78
2023-06-28T11:45:21.518Z,100927.78
2023-06-28T11:47:49.486Z,100933.00
2023-06-28T11:50:20.113Z,100932.81
2023-06-28T11:52:51.743Z,100927.19
2023-06-28T11:55:36.789Z,100923.28
2023-06-28T11:58:03.467Z,100930.28
2023-06-28T12:00:39.917Z,100922.88
2023-06-28T12:03:15.537Z,100922.50
2023-06-28T12:05:57.557Z,100928.22
2023-06-28T12:08:24.497Z,100924.78
2023-06-28T12:11:00.544Z,100925.69
2023-06-28T12:13:28.845Z,100921.84
2023-06-28T12:16:22.559Z,100925.19
2023-06-28T12:19:10.815Z,100919.19
2023-06-28T12:21:49.006Z,100913.09
2023-06-28T12:24:29.364Z,100919.50
2023-06-28T12:27:04.687Z,100925.59
2023-06-28T12:29:38.867Z,100921.41
2023-06-28T12:32:48.582Z,100922.41
2023-06-28T12:35:27.902Z,100924.50
2023-06-28T12:38:03.149Z,100916.13
2023-06-28T12:40:41.550Z,100912.34
2023-06-28T12:43:19.057Z,100922.03
2023-06-28T12:46:06.674Z,100921.31
2023-06-28T12:48:39.024Z,100924.38
2023-06-28T12:51:11.429Z,100916.06
2023-06-28T12:53:41.122Z,100926.50
2023-06-28T12:56:17.733Z,100929.28
2023-06-28T12:58:47.314Z,100928.53
2023-06-28T13:01:14.266Z,100925.28
2023-06-28T13:03:43.900Z,100929.81
2023-06-28T13:06:18.126Z,100917.66
2023-06-28T13:08:44.813Z,100917.97
2023-06-28T13:11:13.419Z,100930.94
2023-06-28T13:13:40.410Z,100923.09
2023-06-28T13:16:13.319Z,100925.59
2023-06-28T13:18:46.105Z,100927.22
2023-06-28T13:21:12.832Z,100929.31
2023-06-28T13:23:51.804Z,100926.94
2023-06-28T13:26:22.606Z,100931.22
2023-06-28T13:28:55.945Z,100920.91
2023-06-28T13:31:25.223Z,100929.19
2023-06-28T13:33:52.115Z,100926.13
2023-06-28T13:36:22.424Z,100924.84
2023-06-28T13:38:51.885Z,100929.78
2023-06-28T13:41:18.574Z,100926.09
2023-06-28T13:43:45.334Z,100934.97
2023-06-28T13:46:12.195Z,100931.69
2023-06-28T13:48:44.886Z,100922.22
2023-06-28T13:51:14.431Z,100922.59
2023-06-28T13:53:43.953Z,100919.16
2023-06-28T13:56:10.722Z,100926.25
2023-06-28T13:58:43.414Z,100932.81
2023-06-28T14:01:18.431Z,100933.66
2023-06-28T14:03:47.052Z,100928.16
2023-06-28T14:06:13.980Z,100925.66
2023-06-28T14:08:46.995Z,100924.13
2023-06-28T14:11:17.543Z,100919.34
2023-06-28T14:13:55.496Z,100919.16
2023-06-28T14:16:22.183Z,100916.25
2023-06-28T14:18:51.070Z,100926.75
2023-06-28T14:21:20.614Z,100918.66
2023-06-28T14:23:47.258Z,100916.56
2023-06-28T14:26:19.719Z,100915.88
2023-06-28T14:28:46.579Z,100912.34
2023-06-28T14:31:16.213Z,100922.00
2023-06-28T14:33:49.238Z,100904.06
2023-06-28T14:36:15.916Z,100913.75
2023-06-28T14:39:07.255Z,100905.69
2023-06-28T14:41:33.988Z,100916.59
2023-06-28T14:44:06.877Z,100911.97
2023-06-28T14:46:33.739Z,100922.09
2023-06-28T14:49:08.886Z,100913.78
2023-06-28T14:51:35.766Z,100914.69
2023-06-28T14:54:09.909Z,100915.84
2023-06-28T14:56:36.679Z,100919.63
2023-06-28T14:59:11.495Z,100903.13
2023-06-28T15:01:38.289Z,100922.50
2023-06-28T15:04:08.154Z,100920.47
2023-06-28T15:06:48.954Z,100914.66
2023-06-28T15:09:18.583Z,100921.09
2023-06-28T15:11:45.720Z,100907.97
2023-06-28T15:14:17.872Z,100917.28
2023-06-28T15:16:48.732Z,100907.69
2023-06-28T15:19:15.734Z,100908.00
2023-06-28T15:21:57.825Z,100897.25
2023-06-28T15:24:27.052Z,100903.50
2023-06-28T15:26:59.392Z,100905.31
2023-06-28T15:29:28.172Z,100915.22
2023-06-28T15:31:59.012Z,100914.06
2023-06-28T15:34:28.599Z,100910.41
2023-06-28T15:37:03.096Z,100903.06
2023-06-28T15:39:29.775Z,100914.41
2023-06-28T15:41:56.567Z,100917.13
2023-06-28T15:44:23.335Z,100915.47
2023-06-28T15:46:51.184Z,100916.97
2023-06-28T15:49:21.012Z,100911.97
2023-06-28T15:51:50.824Z,100906.94
2023-06-28T15:54:23.311Z,100908.78
2023-06-28T15:56:50.260Z,100910.03
2023-06-28T15:59:17.023Z,100908.50
2023-06-28T16:01:46.928Z,100909.63
2023-06-28T16:04:19.649Z,100910.72
2023-06-28T16:06:48.609Z,100913.81
2023-06-28T16:09:15.659Z,100911.75
2023-06-28T16:11:47.480Z,100917.41
2023-06-28T16:14:14.608Z,100905.25
2023-06-28T16:16:44.284Z,100913.72
2023-06-28T16:19:12.369Z,100918.09
2023-06-28T16:21:57.374Z,100904.59
2023-06-28T16:24:27.175Z,100908.03
2023-06-28T16:26:57.516Z,100902.31
2023-06-28T16:29:29.753Z,100909.88
2023-06-28T16:31:58.910Z,100913.25
2023-06-28T16:34:25.611Z,100916.00
2023-06-28T16:37:00.931Z,100915.03
2023-06-28T16:39:30.642Z,100922.25
2023-06-28T16:42:16.294Z,100908.72
2023-06-28T16:44:54.484Z,100918.03
2023-06-28T16:47:21.263Z,100917.78
2023-06-28T16:49:55.439Z,100918.03
2023-06-28T16:52:22.377Z,100907.47
2023-06-28T16:55:02.521Z,100909.38
2023-06-28T16:57:29.580Z,100913.03
2023-06-28T17:00:09.775Z,100917.53
2023-06-28T17:02:48.141Z,100906.94
2023-06-28T17:05:18.428Z,100903.00
2023-06-28T17:07:48.784Z,100905.81
2023-06-28T17:10:29.936Z,100903.09
2023-06-28T17:12:56.865Z,100907.78
2023-06-28T17:15:26.304Z,100904.88
2023-06-28T17:17:55.697Z,100907.78
2023-06-28T17:20:22.526Z,100902.13
2023-06-28T17:22:49.281Z,100917.09
2023-06-28T17:25:21.254Z,100921.91
2023-06-28T17:27:49.707Z,100909.22
2023-06-28T17:30:23.225Z,100896.78
2023-06-28T17:32:50.098Z,100907.38
2023-06-28T17:35:17.224Z,100919.00
2023-06-28T17:37:43.911Z,100907.78
2023-06-28T17:40:13.318Z,100908.69
2023-06-28T17:42:42.525Z,100908.91
2023-06-28T17:45:10.583Z,100916.31
2023-06-28T17:47:37.653Z,100922.78
2023-06-28T17:50:08.125Z,100917.72
2023-06-28T17:52:34.805Z,100916.63
2023-06-28T17:55:07.759Z,100917.88
2023-06-28T17:57:36.544Z,100922.28
2023-06-28T18:00:07.268Z,100918.06
2023-06-28T18:02:34.603Z,100921.50
2023-06-28T18:05:01.597Z,100918.13
2023-06-28T18:07:28.712Z,100920.03
2023-06-28T18:10:01.930Z,100915.19
2023-06-28T18:12:29.627Z,100918.56
2023-06-28T18:14:59.293Z,100919.66
2023-06-28T18:17:34.671Z,100923.47
2023-06-28T18:20:01.531Z,100920.13
2023-06-28T18:22:28.554Z,100921.59
2023-06-28T18:25:01.094Z,100914.44
2023-06-28T18:27:27.844Z,100918.06
2023-06-28T18:30:10.838Z,100928.03
2023-06-28T18:32:37.654Z,100931.84
2023-06-28T18:35:10.711Z,100923.88
2023-06-28T18:37:40.077Z,100924.31
2023-06-28T18:40:10.549Z,100924.78
2023-06-28T18:42:37.265Z,100924.00
2023-06-28T18:45:13.753Z,100928.25
2023-06-28T18:47:40.447Z,100934.81
2023-06-28T18:50:07.681Z,100928.66
2023-06-28T18:52:34.466Z,100932.66
2023-06-28T18:55:01.542Z,100929.72
2023-06-28T18:57:30.794Z,100930.19
2023-06-28T18:59:57.520Z,100930.41
2023-06-28T19:02:33.334Z,100931.69
2023-06-28T19:05:03.405Z,100930.22
2023-06-28T19:07:33.128Z,100924.97
2023-06-28T19:10:10.886Z,100928.56
2023-06-28T19:12:37.578Z,100924.31
2023-06-28T19:15:08.452Z,100920.13
2023-06-28T19:17:35.300Z,100925.59
2023-06-28T19:20:02.312Z,100925.19
2023-06-28T19:22:32.020Z,100926.25
2023-06-28T19:24:58.743Z,100929.22
2023-06-28T19:27:25.428Z,100930.88
2023-06-28T19:29:56.266Z,100931.50
2023-06-28T19:32:23.395Z,100943.75
2023-06-28T19:34:59.049Z,100938.66
2023-06-28T19:37:26.692Z,100938.91
2023-06-28T19:39:55.947Z,100938.47
2023-06-28T19:42:22.835Z,100923.94
2023-06-28T19:44:56.093Z,100936.16
2023-06-28T19:47:22.860Z,100943.75
2023-06-28T19:49:55.444Z,100939.75
2023-06-28T19:52:22.186Z,100956.81
2023-06-28T19:54:55.379Z,100958.09
2023-06-28T19:57:22.204Z,100957.88
2023-06-28T19:59:55.066Z,100954.91
2023-06-28T20:02:21.862Z,100950.06
2023-06-28T20:04:57.870Z,100958.72
2023-06-28T20:07:27.268Z,100950.50
2023-06-28T20:10:02.334Z,100956.19
2023-06-28T20:12:29.156Z,100956.19
2023-06-28T20:15:09.806Z,100960.00
2023-06-28T20:17:39.149Z,100953.03
2023-06-28T20:20:14.184Z,100952.59
2023-06-28T20:22:41.018Z,100960.38
2023-06-28T20:25:29.559Z,100959.75
2023-06-28T20:27:56.887Z,100968.84
2023-06-28T20:30:23.952Z,100959.31
2023-06-28T20:35:50.750Z,100951.94
2023-06-28T20:38:26.987Z,100965.19
2023-06-28T20:40:57.566Z,100954.84
2023-06-28T20:43:24.930Z,100948.16
2023-06-28T20:45:59.089Z,100950.88
2023-06-28T20:48:27.949Z,100949.81
2023-06-28T20:51:00.123Z,100949.59
2023-06-28T20:53:27.208Z,100959.91
2023-06-28T20:56:04.654Z,100957.81
2023-06-28T20:58:32.070Z,100946.84
2023-06-28T21:01:09.831Z,100955.06
2023-06-28T21:03:36.681Z,100959.06
2023-06-28T21:06:12.067Z,100961.56
2023-06-28T21:08:46.862Z,100964.09
2023-06-28T21:11:13.824Z,100962.41
2023-06-28T21:13:43.720Z,100957.97
2023-06-28T21:16:10.968Z,100959.88
2023-06-28T21:18:37.715Z,100962.81
2023-06-28T21:21:06.793Z,100957.34
2023-06-28T21:23:38.616Z,100949.75
2023-06-28T21:26:08.482Z,100950.81
2023-06-28T21:28:35.488Z,100941.13
2023-06-28T21:31:09.863Z,100941.75
2023-06-28T21:33:39.416Z,100935.38
2023-06-28T21:36:09.364Z,100942.97
2023-06-28T21:38:36.139Z,100944.47
2023-06-28T21:41:11.542Z,100941.50
2023-06-28T21:43:41.305Z,100929.69
2023-06-28T21:46:08.033Z,100930.16
2023-06-28T21:48:40.834Z,100932.47
2023-06-28T21:51:07.784Z,100929.69
2023-06-28T21:53:37.634Z,100923.59
2023-06-28T21:56:10.465Z,100931.59
2023-06-28T21:58:37.477Z,100929.06
2023-06-28T22:01:11.547Z,100935.59
2023-06-28T22:03:41.413Z,100934.31
2023-06-28T22:06:10.926Z,100928.41
2023-06-28T22:08:38.547Z,100933.03
2023-06-28T22:11:11.934Z,100936.59
2023-06-28T22:13:42.455Z,100927.75
2023-06-28T22:16:14.651Z,100930.28
2023-06-28T22:18:43.628Z,100931.13
2023-06-28T22:21:10.654Z,100922.91
2023-06-28T22:23:37.945Z,100926.72
2023-06-28T22:26:04.712Z,100921.44
2023-06-28T22:28:31.715Z,100915.13
2023-06-28T22:31:07.901Z,100919.56
2023-06-28T22:33:34.623Z,100905.84
2023-06-28T22:36:02.258Z,100915.13
2023-06-28T22:38:32.000Z,100908.81
2023-06-28T22:41:10.834Z,100906.28
2023-06-28T22:43:37.516Z,100904.94
2023-06-28T22:46:04.462Z,100907.03
2023-06-28T22:48:32.903Z,100906.63
2023-06-28T22:51:09.237Z,100898.63
2023-06-28T22:53:36.328Z,100902.63
2023-06-28T22:56:03.234Z,100906.78
2023-06-28T22:58:30.275Z,100903.22
2023-06-28T23:00:57.480Z,100908.88
2023-06-28T23:03:25.329Z,100896.06
2023-06-28T23:05:54.748Z,100905.75
2023-06-28T23:08:21.668Z,100900.88
2023-06-28T23:10:51.642Z,100904.47
2023-06-28T23:13:23.730Z,100910.97
2023-06-28T23:15:50.595Z,100903.66
2023-06-28T23:18:20.800Z,100906.38
2023-06-28T23:21:02.703Z,100903.00
2023-06-28T23:23:32.926Z,100892.22
2023-06-28T23:26:08.101Z,100897.09
2023-06-28T23:28:34.878Z,100886.31
2023-06-28T23:31:05.498Z,100899.78
2023-06-28T23:33:32.226Z,100900.19
2023-06-28T23:36:02.196Z,100895.13
2023-06-28T23:38:29.019Z,100892.38
2023-06-28T23:40:56.205Z,100900.16
2023-06-28T23:43:22.917Z,100900.34
2023-06-28T23:45:49.947Z,100900.97
2023-06-28T23:48:25.958Z,100911.69
2023-06-28T23:50:55.930Z,100899.91
2023-06-28T23:53:24.614Z,100907.53
2023-06-28T23:55:55.457Z,100897.00
2023-06-28T23:58:22.640Z,100894.72
